Capitol Logistics 3251




KMIA
Miami International Airport
Miami, Florida
MYNN
Lynden Pindling International Airport
Nassau,

Activity Log

Date Flight Route Aircraft Duration
04/12/2021 CPX3251 SKIPS2 SKIPS RAJAY SF34 0h 47m
03/11/2021 CPX3251 SKIPS2 SKIPS RAJAY SF34 0h 50m
09/14/2019 CPX651 SKIPS2 SKIPS RAJAY SF34 0h 39m
09/04/2019 CPX651 SKIPS2 SKIPS RAJAY SF34 0h 40m
09/04/2019 CPX651 SKIPS2 SKIPS RAJAY SF34 0h 42m
08/21/2019 CPX651 SKIPS2 SKIPS RAJAY SF34 0h 50m
06/25/2019 CPX651 SKIPS2 SKIPS RAJAY SF34 0h 50m

Route Details

Aircraft Information
Primary: Saab 340AF
Backup: Not Available
Route Data
Distance: 160nm
Duration: 1h 05m
Recm'd Route: SKIPS2 SKIPS RAJAY
Origin Wx: KMIA 141953Z 11013KT 10SM FEW040 27/17 A3005 RMK AO2 SLP177 T02720172 $
Dest. Wx: MYNN 142000Z 08010KT 040V110 9999 FEW025 26/18 A3006
Notes: